sensor_id;sensor_type;location;lat;lon;timestamp;P1;durP1;ratioP1;P2;durP2;ratioP2
23058;SDS011;30585;51.502;7.218;2023-08-12T00:02:16;18.58;;;15.02;;
23058;SDS011;30585;51.502;7.218;2023-08-12T00:04:45;17.52;;;15.30;;
23058;SDS011;30585;51.502;7.218;2023-08-12T00:07:13;19.90;;;16.48;;
23058;SDS011;30585;51.502;7.218;2023-08-12T00:09:40;18.77;;;15.82;;
23058;SDS011;30585;51.502;7.218;2023-08-12T00:12:09;16.45;;;14.43;;
23058;SDS011;30585;51.502;7.218;2023-08-12T00:14:38;21.80;;;18.67;;
23058;SDS011;30585;51.502;7.218;2023-08-12T00:17:06;18.00;;;15.88;;
23058;SDS011;30585;51.502;7.218;2023-08-12T00:19:34;17.58;;;15.77;;
23058;SDS011;30585;51.502;7.218;2023-08-12T00:22:02;19.50;;;17.05;;
23058;SDS011;30585;51.502;7.218;2023-08-12T00:24:30;19.27;;;17.27;;
23058;SDS011;30585;51.502;7.218;2023-08-12T00:26:58;20.15;;;16.25;;
23058;SDS011;30585;51.502;7.218;2023-08-12T00:29:26;16.27;;;14.52;;
23058;SDS011;30585;51.502;7.218;2023-08-12T00:31:56;17.88;;;15.95;;
23058;SDS011;30585;51.502;7.218;2023-08-12T00:34:24;19.83;;;17.83;;
23058;SDS011;30585;51.502;7.218;2023-08-12T00:36:52;21.20;;;18.15;;
23058;SDS011;30585;51.502;7.218;2023-08-12T00:39:20;21.15;;;18.40;;
23058;SDS011;30585;51.502;7.218;2023-08-12T00:41:49;21.13;;;17.92;;
23058;SDS011;30585;51.502;7.218;2023-08-12T00:44:17;20.77;;;18.60;;
23058;SDS011;30585;51.502;7.218;2023-08-12T00:46:45;19.83;;;17.73;;
23058;SDS011;30585;51.502;7.218;2023-08-12T00:49:14;19.17;;;17.08;;
23058;SDS011;30585;51.502;7.218;2023-08-12T00:51:43;22.20;;;17.98;;
23058;SDS011;30585;51.502;7.218;2023-08-12T00:54:14;23.23;;;18.48;;
23058;SDS011;30585;51.502;7.218;2023-08-12T00:56:43;21.58;;;17.05;;
23058;SDS011;30585;51.502;7.218;2023-08-12T00:59:12;17.95;;;15.88;;
23058;SDS011;30585;51.502;7.218;2023-08-12T01:01:40;17.45;;;14.43;;
23058;SDS011;30585;51.502;7.218;2023-08-12T01:04:09;17.77;;;15.68;;
23058;SDS011;30585;51.502;7.218;2023-08-12T01:06:39;17.90;;;15.65;;
23058;SDS011;30585;51.502;7.218;2023-08-12T01:09:07;15.43;;;13.90;;
23058;SDS011;30585;51.502;7.218;2023-08-12T01:11:36;15.60;;;13.23;;
23058;SDS011;30585;51.502;7.218;2023-08-12T01:14:12;15.50;;;13.27;;
23058;SDS011;30585;51.502;7.218;2023-08-12T01:16:44;19.75;;;13.35;;
23058;SDS011;30585;51.502;7.218;2023-08-12T01:19:17;14.48;;;12.98;;
23058;SDS011;30585;51.502;7.218;2023-08-12T01:21:55;15.07;;;13.20;;
23058;SDS011;30585;51.502;7.218;2023-08-12T01:24:31;15.15;;;13.60;;
23058;SDS011;30585;51.502;7.218;2023-08-12T01:27:02;14.30;;;12.75;;
23058;SDS011;30585;51.502;7.218;2023-08-12T01:29:31;15.75;;;13.20;;
23058;SDS011;30585;51.502;7.218;2023-08-12T01:32:03;15.13;;;13.57;;
23058;SDS011;30585;51.502;7.218;2023-08-12T01:34:39;15.27;;;13.57;;
23058;SDS011;30585;51.502;7.218;2023-08-12T01:37:12;18.95;;;12.57;;
23058;SDS011;30585;51.502;7.218;2023-08-12T01:39:46;16.83;;;13.13;;
23058;SDS011;30585;51.502;7.218;2023-08-12T01:42:15;16.30;;;13.75;;
23058;SDS011;30585;51.502;7.218;2023-08-12T01:44:46;14.52;;;12.70;;
23058;SDS011;30585;51.502;7.218;2023-08-12T01:47:15;15.43;;;12.55;;
23058;SDS011;30585;51.502;7.218;2023-08-12T01:49:43;15.57;;;12.70;;
23058;SDS011;30585;51.502;7.218;2023-08-12T01:52:11;13.93;;;12.35;;
23058;SDS011;30585;51.502;7.218;2023-08-12T01:54:39;13.95;;;12.38;;
23058;SDS011;30585;51.502;7.218;2023-08-12T01:57:08;18.02;;;13.32;;
23058;SDS011;30585;51.502;7.218;2023-08-12T01:59:38;18.83;;;14.43;;
23058;SDS011;30585;51.502;7.218;2023-08-12T02:02:06;13.70;;;11.73;;
23058;SDS011;30585;51.502;7.218;2023-08-12T02:04:34;14.82;;;13.25;;
23058;SDS011;30585;51.502;7.218;2023-08-12T02:07:03;19.30;;;12.20;;
23058;SDS011;30585;51.502;7.218;2023-08-12T02:09:32;15.20;;;12.43;;
23058;SDS011;30585;51.502;7.218;2023-08-12T02:12:00;15.95;;;12.02;;
23058;SDS011;30585;51.502;7.218;2023-08-12T02:14:29;14.23;;;11.48;;
23058;SDS011;30585;51.502;7.218;2023-08-12T02:16:57;18.10;;;13.05;;
23058;SDS011;30585;51.502;7.218;2023-08-12T02:19:25;18.27;;;13.35;;
23058;SDS011;30585;51.502;7.218;2023-08-12T02:21:54;19.02;;;13.75;;
23058;SDS011;30585;51.502;7.218;2023-08-12T02:24:21;15.93;;;14.20;;
23058;SDS011;30585;51.502;7.218;2023-08-12T02:26:49;15.48;;;12.88;;
23058;SDS011;30585;51.502;7.218;2023-08-12T02:29:17;17.02;;;14.70;;
23058;SDS011;30585;51.502;7.218;2023-08-12T02:31:47;17.85;;;13.90;;
23058;SDS011;30585;51.502;7.218;2023-08-12T02:34:15;15.10;;;13.32;;
23058;SDS011;30585;51.502;7.218;2023-08-12T02:36:43;16.92;;;13.05;;
23058;SDS011;30585;51.502;7.218;2023-08-12T02:39:11;15.95;;;13.63;;
23058;SDS011;30585;51.502;7.218;2023-08-12T02:41:39;18.67;;;14.40;;
23058;SDS011;30585;51.502;7.218;2023-08-12T02:44:07;18.95;;;15.48;;
23058;SDS011;30585;51.502;7.218;2023-08-12T02:46:35;18.45;;;14.82;;
23058;SDS011;30585;51.502;7.218;2023-08-12T02:49:04;22.33;;;15.23;;
23058;SDS011;30585;51.502;7.218;2023-08-12T02:51:32;20.02;;;15.27;;
23058;SDS011;30585;51.502;7.218;2023-08-12T02:54:00;21.10;;;14.40;;
23058;SDS011;30585;51.502;7.218;2023-08-12T02:56:29;18.50;;;15.52;;
23058;SDS011;30585;51.502;7.218;2023-08-12T02:58:57;18.45;;;15.10;;
23058;SDS011;30585;51.502;7.218;2023-08-12T03:01:25;16.67;;;14.63;;
23058;SDS011;30585;51.502;7.218;2023-08-12T03:03:54;17.80;;;15.88;;
23058;SDS011;30585;51.502;7.218;2023-08-12T03:06:23;16.95;;;14.77;;
23058;SDS011;30585;51.502;7.218;2023-08-12T03:08:52;18.30;;;15.32;;
23058;SDS011;30585;51.502;7.218;2023-08-12T03:11:19;17.60;;;14.98;;
23058;SDS011;30585;51.502;7.218;2023-08-12T03:13:48;21.55;;;17.17;;
23058;SDS011;30585;51.502;7.218;2023-08-12T03:16:16;21.52;;;17.55;;
23058;SDS011;30585;51.502;7.218;2023-08-12T03:18:43;21.38;;;16.48;;
23058;SDS011;30585;51.502;7.218;2023-08-12T03:21:12;20.35;;;16.67;;
23058;SDS011;30585;51.502;7.218;2023-08-12T03:23:41;20.15;;;16.02;;
23058;SDS011;30585;51.502;7.218;2023-08-12T03:26:09;19.90;;;15.80;;
23058;SDS011;30585;51.502;7.218;2023-08-12T03:28:38;19.63;;;16.42;;
23058;SDS011;30585;51.502;7.218;2023-08-12T03:31:06;19.15;;;16.02;;
23058;SDS011;30585;51.502;7.218;2023-08-12T03:33:34;20.88;;;17.73;;
23058;SDS011;30585;51.502;7.218;2023-08-12T03:36:02;20.92;;;17.17;;
23058;SDS011;30585;51.502;7.218;2023-08-12T03:38:30;19.15;;;17.15;;
23058;SDS011;30585;51.502;7.218;2023-08-12T03:41:00;20.77;;;17.65;;
23058;SDS011;30585;51.502;7.218;2023-08-12T03:43:28;21.35;;;17.83;;
23058;SDS011;30585;51.502;7.218;2023-08-12T03:45:56;18.52;;;15.82;;
23058;SDS011;30585;51.502;7.218;2023-08-12T03:48:24;18.65;;;16.42;;
23058;SDS011;30585;51.502;7.218;2023-08-12T03:50:52;16.63;;;14.75;;
23058;SDS011;30585;51.502;7.218;2023-08-12T03:53:20;19.67;;;16.05;;
23058;SDS011;30585;51.502;7.218;2023-08-12T03:55:48;19.02;;;16.13;;
23058;SDS011;30585;51.502;7.218;2023-08-12T03:58:18;19.83;;;17.30;;
23058;SDS011;30585;51.502;7.218;2023-08-12T04:00:46;18.58;;;16.33;;
23058;SDS011;30585;51.502;7.218;2023-08-12T04:03:14;20.33;;;16.63;;
23058;SDS011;30585;51.502;7.218;2023-08-12T04:05:48;18.02;;;16.15;;
23058;SDS011;30585;51.502;7.218;2023-08-12T04:08:18;19.95;;;16.10;;
23058;SDS011;30585;51.502;7.218;2023-08-12T04:10:47;18.90;;;16.27;;
23058;SDS011;30585;51.502;7.218;2023-08-12T04:13:15;18.08;;;16.13;;
23058;SDS011;30585;51.502;7.218;2023-08-12T04:15:47;20.88;;;16.15;;
23058;SDS011;30585;51.502;7.218;2023-08-12T04:18:16;16.58;;;14.82;;
23058;SDS011;30585;51.502;7.218;2023-08-12T04:20:44;19.92;;;16.77;;
23058;SDS011;30585;51.502;7.218;2023-08-12T04:23:13;21.25;;;17.23;;
23058;SDS011;30585;51.502;7.218;2023-08-12T04:25:42;19.65;;;16.27;;
23058;SDS011;30585;51.502;7.218;2023-08-12T04:28:10;18.85;;;15.30;;
23058;SDS011;30585;51.502;7.218;2023-08-12T04:30:40;18.10;;;15.50;;
23058;SDS011;30585;51.502;7.218;2023-08-12T04:33:10;17.90;;;16.10;;
23058;SDS011;30585;51.502;7.218;2023-08-12T04:35:39;18.33;;;16.02;;
23058;SDS011;30585;51.502;7.218;2023-08-12T04:38:07;19.05;;;16.02;;
23058;SDS011;30585;51.502;7.218;2023-08-12T04:40:37;18.00;;;16.13;;
23058;SDS011;30585;51.502;7.218;2023-08-12T04:43:06;20.73;;;16.67;;
23058;SDS011;30585;51.502;7.218;2023-08-12T04:45:34;16.98;;;15.25;;
23058;SDS011;30585;51.502;7.218;2023-08-12T04:48:03;16.08;;;14.35;;
23058;SDS011;30585;51.502;7.218;2023-08-12T04:50:32;16.98;;;15.20;;
23058;SDS011;30585;51.502;7.218;2023-08-12T04:53:03;18.67;;;14.57;;
23058;SDS011;30585;51.502;7.218;2023-08-12T04:55:31;15.60;;;13.75;;
23058;SDS011;30585;51.502;7.218;2023-08-12T04:57:59;16.00;;;13.80;;
23058;SDS011;30585;51.502;7.218;2023-08-12T05:00:27;16.15;;;13.50;;
23058;SDS011;30585;51.502;7.218;2023-08-12T05:02:56;16.15;;;14.38;;
23058;SDS011;30585;51.502;7.218;2023-08-12T05:05:25;16.17;;;14.35;;
23058;SDS011;30585;51.502;7.218;2023-08-12T05:07:55;17.08;;;14.48;;
23058;SDS011;30585;51.502;7.218;2023-08-12T05:10:23;15.55;;;14.00;;
23058;SDS011;30585;51.502;7.218;2023-08-12T05:12:51;15.35;;;13.38;;
23058;SDS011;30585;51.502;7.218;2023-08-12T05:15:20;16.48;;;13.98;;
23058;SDS011;30585;51.502;7.218;2023-08-12T05:17:48;14.80;;;13.20;;
23058;SDS011;30585;51.502;7.218;2023-08-12T05:20:16;15.65;;;13.13;;
23058;SDS011;30585;51.502;7.218;2023-08-12T05:22:44;15.68;;;13.15;;
23058;SDS011;30585;51.502;7.218;2023-08-12T05:25:14;19.13;;;14.57;;
23058;SDS011;30585;51.502;7.218;2023-08-12T05:27:42;15.40;;;12.48;;
23058;SDS011;30585;51.502;7.218;2023-08-12T05:30:10;14.85;;;13.25;;
23058;SDS011;30585;51.502;7.218;2023-08-12T05:32:39;14.00;;;11.65;;
23058;SDS011;30585;51.502;7.218;2023-08-12T05:35:07;15.25;;;13.45;;
23058;SDS011;30585;51.502;7.218;2023-08-12T05:37:35;13.95;;;12.55;;
23058;SDS011;30585;51.502;7.218;2023-08-12T05:40:04;13.38;;;11.98;;
23058;SDS011;30585;51.502;7.218;2023-08-12T05:42:36;13.75;;;11.52;;
23058;SDS011;30585;51.502;7.218;2023-08-12T05:45:05;14.50;;;12.52;;
23058;SDS011;30585;51.502;7.218;2023-08-12T05:47:34;13.32;;;11.07;;
23058;SDS011;30585;51.502;7.218;2023-08-12T05:50:02;13.40;;;12.00;;
23058;SDS011;30585;51.502;7.218;2023-08-12T05:52:30;12.07;;;10.60;;
23058;SDS011;30585;51.502;7.218;2023-08-12T05:54:58;17.25;;;11.88;;
23058;SDS011;30585;51.502;7.218;2023-08-12T05:57:26;11.85;;;10.75;;
23058;SDS011;30585;51.502;7.218;2023-08-12T05:59:56;12.73;;;9.90;;
23058;SDS011;30585;51.502;7.218;2023-08-12T06:02:24;11.70;;;9.55;;
23058;SDS011;30585;51.502;7.218;2023-08-12T06:04:53;12.80;;;10.30;;
23058;SDS011;30585;51.502;7.218;2023-08-12T06:07:21;14.07;;;10.30;;
23058;SDS011;30585;51.502;7.218;2023-08-12T06:09:49;11.80;;;10.07;;
23058;SDS011;30585;51.502;7.218;2023-08-12T06:12:17;12.75;;;9.10;;
23058;SDS011;30585;51.502;7.218;2023-08-12T06:14:46;9.73;;;8.60;;
23058;SDS011;30585;51.502;7.218;2023-08-12T06:17:15;10.60;;;9.30;;
23058;SDS011;30585;51.502;7.218;2023-08-12T06:19:46;11.93;;;9.48;;
23058;SDS011;30585;51.502;7.218;2023-08-12T06:22:14;9.80;;;8.85;;
23058;SDS011;30585;51.502;7.218;2023-08-12T06:24:42;9.43;;;8.52;;
23058;SDS011;30585;51.502;7.218;2023-08-12T06:27:11;8.38;;;7.57;;
23058;SDS011;30585;51.502;7.218;2023-08-12T06:29:39;10.77;;;7.97;;
23058;SDS011;30585;51.502;7.218;2023-08-12T06:32:07;9.10;;;8.20;;
23058;SDS011;30585;51.502;7.218;2023-08-12T06:34:41;11.45;;;7.45;;
23058;SDS011;30585;51.502;7.218;2023-08-12T06:37:17;8.07;;;6.50;;
23058;SDS011;30585;51.502;7.218;2023-08-12T06:39:45;9.38;;;7.88;;
23058;SDS011;30585;51.502;7.218;2023-08-12T06:42:13;6.82;;;6.20;;
23058;SDS011;30585;51.502;7.218;2023-08-12T06:44:41;8.63;;;6.28;;
23058;SDS011;30585;51.502;7.218;2023-08-12T06:47:09;7.53;;;6.43;;
23058;SDS011;30585;51.502;7.218;2023-08-12T06:49:37;7.07;;;5.97;;
23058;SDS011;30585;51.502;7.218;2023-08-12T06:52:07;8.25;;;6.82;;
23058;SDS011;30585;51.502;7.218;2023-08-12T06:54:35;7.55;;;5.32;;
23058;SDS011;30585;51.502;7.218;2023-08-12T06:57:03;10.38;;;5.85;;
23058;SDS011;30585;51.502;7.218;2023-08-12T06:59:31;9.20;;;6.03;;
23058;SDS011;30585;51.502;7.218;2023-08-12T07:01:59;7.53;;;5.32;;
23058;SDS011;30585;51.502;7.218;2023-08-12T07:04:27;7.85;;;6.07;;
23058;SDS011;30585;51.502;7.218;2023-08-12T07:06:55;6.10;;;5.05;;
23058;SDS011;30585;51.502;7.218;2023-08-12T07:09:24;6.53;;;4.72;;
23058;SDS011;30585;51.502;7.218;2023-08-12T07:11:52;7.00;;;4.95;;
23058;SDS011;30585;51.502;7.218;2023-08-12T07:14:20;7.30;;;4.75;;
23058;SDS011;30585;51.502;7.218;2023-08-12T07:16:48;5.32;;;4.82;;
23058;SDS011;30585;51.502;7.218;2023-08-12T07:19:16;6.07;;;4.45;;
23058;SDS011;30585;51.502;7.218;2023-08-12T07:21:44;5.07;;;4.13;;
23058;SDS011;30585;51.502;7.218;2023-08-12T07:24:12;6.03;;;4.50;;
23058;SDS011;30585;51.502;7.218;2023-08-12T07:26:41;6.53;;;4.68;;
23058;SDS011;30585;51.502;7.218;2023-08-12T07:29:09;4.97;;;4.47;;
23058;SDS011;30585;51.502;7.218;2023-08-12T07:31:37;5.30;;;4.25;;
23058;SDS011;30585;51.502;7.218;2023-08-12T07:34:05;8.35;;;4.55;;
23058;SDS011;30585;51.502;7.218;2023-08-12T07:36:33;5.15;;;4.60;;
23058;SDS011;30585;51.502;7.218;2023-08-12T07:39:01;9.20;;;5.07;;
23058;SDS011;30585;51.502;7.218;2023-08-12T07:41:30;13.93;;;7.32;;
23058;SDS011;30585;51.502;7.218;2023-08-12T07:43:59;7.43;;;4.90;;
23058;SDS011;30585;51.502;7.218;2023-08-12T07:46:27;7.75;;;5.10;;
23058;SDS011;30585;51.502;7.218;2023-08-12T07:48:55;6.72;;;5.47;;
23058;SDS011;30585;51.502;7.218;2023-08-12T07:51:23;6.78;;;4.43;;
23058;SDS011;30585;51.502;7.218;2023-08-12T07:53:51;7.53;;;4.45;;
23058;SDS011;30585;51.502;7.218;2023-08-12T07:56:19;7.38;;;4.80;;
23058;SDS011;30585;51.502;7.218;2023-08-12T07:58:47;4.97;;;4.32;;
23058;SDS011;30585;51.502;7.218;2023-08-12T08:01:16;5.07;;;4.10;;
23058;SDS011;30585;51.502;7.218;2023-08-12T08:03:45;4.35;;;3.50;;
23058;SDS011;30585;51.502;7.218;2023-08-12T08:06:13;6.80;;;4.38;;
23058;SDS011;30585;51.502;7.218;2023-08-12T08:08:41;5.72;;;4.10;;
23058;SDS011;30585;51.502;7.218;2023-08-12T08:11:10;5.40;;;3.50;;
23058;SDS011;30585;51.502;7.218;2023-08-12T08:13:38;4.28;;;3.35;;
23058;SDS011;30585;51.502;7.218;2023-08-12T08:16:07;4.85;;;3.60;;
23058;SDS011;30585;51.502;7.218;2023-08-12T08:18:37;4.22;;;3.50;;
23058;SDS011;30585;51.502;7.218;2023-08-12T08:21:05;5.55;;;3.40;;
23058;SDS011;30585;51.502;7.218;2023-08-12T08:23:33;3.88;;;3.25;;
23058;SDS011;30585;51.502;7.218;2023-08-12T08:26:01;3.60;;;2.97;;
23058;SDS011;30585;51.502;7.218;2023-08-12T08:28:30;3.58;;;3.15;;
23058;SDS011;30585;51.502;7.218;2023-08-12T08:30:59;3.92;;;3.30;;
23058;SDS011;30585;51.502;7.218;2023-08-12T08:33:27;5.68;;;3.60;;
23058;SDS011;30585;51.502;7.218;2023-08-12T08:35:57;4.78;;;3.40;;
23058;SDS011;30585;51.502;7.218;2023-08-12T08:38:25;4.57;;;3.35;;
23058;SDS011;30585;51.502;7.218;2023-08-12T08:40:53;4.70;;;4.05;;
23058;SDS011;30585;51.502;7.218;2023-08-12T08:43:21;4.57;;;4.18;;
23058;SDS011;30585;51.502;7.218;2023-08-12T08:45:53;5.20;;;4.07;;
23058;SDS011;30585;51.502;7.218;2023-08-12T08:48:22;4.93;;;4.43;;
23058;SDS011;30585;51.502;7.218;2023-08-12T08:51:11;5.35;;;4.40;;
23058;SDS011;30585;51.502;7.218;2023-08-12T08:53:41;5.43;;;4.80;;
23058;SDS011;30585;51.502;7.218;2023-08-12T08:56:20;6.78;;;4.25;;
23058;SDS011;30585;51.502;7.218;2023-08-12T08:59:10;7.93;;;4.63;;
23058;SDS011;30585;51.502;7.218;2023-08-12T09:01:38;5.43;;;4.93;;
23058;SDS011;30585;51.502;7.218;2023-08-12T09:04:14;9.20;;;5.40;;
23058;SDS011;30585;51.502;7.218;2023-08-12T09:06:46;6.97;;;4.90;;
23058;SDS011;30585;51.502;7.218;2023-08-12T09:09:16;6.78;;;5.40;;
23058;SDS011;30585;51.502;7.218;2023-08-12T09:11:47;6.72;;;5.28;;
23058;SDS011;30585;51.502;7.218;2023-08-12T09:14:16;6.78;;;6.07;;
23058;SDS011;30585;51.502;7.218;2023-08-12T09:16:44;6.75;;;5.68;;
23058;SDS011;30585;51.502;7.218;2023-08-12T09:19:13;6.25;;;5.70;;
23058;SDS011;30585;51.502;7.218;2023-08-12T09:21:41;5.65;;;5.20;;
23058;SDS011;30585;51.502;7.218;2023-08-12T09:24:11;6.88;;;5.07;;
23058;SDS011;30585;51.502;7.218;2023-08-12T09:26:41;6.50;;;5.40;;
23058;SDS011;30585;51.502;7.218;2023-08-12T09:29:21;5.55;;;4.93;;
23058;SDS011;30585;51.502;7.218;2023-08-12T09:31:54;5.38;;;4.88;;
23058;SDS011;30585;51.502;7.218;2023-08-12T09:34:22;4.32;;;3.95;;
23058;SDS011;30585;51.502;7.218;2023-08-12T09:36:52;4.97;;;4.57;;
23058;SDS011;30585;51.502;7.218;2023-08-12T09:39:27;4.97;;;4.47;;
23058;SDS011;30585;51.502;7.218;2023-08-12T09:41:56;4.80;;;4.30;;
23058;SDS011;30585;51.502;7.218;2023-08-12T09:44:26;4.10;;;3.65;;
23058;SDS011;30585;51.502;7.218;2023-08-12T09:46:58;3.88;;;3.42;;
23058;SDS011;30585;51.502;7.218;2023-08-12T09:49:26;5.60;;;3.38;;
23058;SDS011;30585;51.502;7.218;2023-08-12T09:54:58;5.15;;;3.35;;
23058;SDS011;30585;51.502;7.218;2023-08-12T09:57:48;3.35;;;3.03;;
23058;SDS011;30585;51.502;7.218;2023-08-12T10:00:23;4.57;;;3.17;;
23058;SDS011;30585;51.502;7.218;2023-08-12T10:02:52;4.63;;;3.70;;
23058;SDS011;30585;51.502;7.218;2023-08-12T10:05:21;3.55;;;2.92;;
23058;SDS011;30585;51.502;7.218;2023-08-12T10:07:55;3.58;;;2.47;;
23058;SDS011;30585;51.502;7.218;2023-08-12T10:10:26;3.05;;;2.45;;
23058;SDS011;30585;51.502;7.218;2023-08-12T10:12:54;3.90;;;2.50;;
23058;SDS011;30585;51.502;7.218;2023-08-12T10:15:23;4.35;;;2.95;;
23058;SDS011;30585;51.502;7.218;2023-08-12T10:17:52;3.20;;;2.38;;
23058;SDS011;30585;51.502;7.218;2023-08-12T10:20:24;3.10;;;2.40;;
23058;SDS011;30585;51.502;7.218;2023-08-12T10:22:53;4.00;;;2.10;;
23058;SDS011;30585;51.502;7.218;2023-08-12T10:25:23;3.50;;;2.08;;
23058;SDS011;30585;51.502;7.218;2023-08-12T10:27:58;2.15;;;1.95;;
23058;SDS011;30585;51.502;7.218;2023-08-12T10:30:28;2.78;;;1.83;;
23058;SDS011;30585;51.502;7.218;2023-08-12T10:32:57;2.28;;;1.70;;
23058;SDS011;30585;51.502;7.218;2023-08-12T10:35:40;2.00;;;1.77;;
23058;SDS011;30585;51.502;7.218;2023-08-12T10:38:08;1.52;;;1.40;;
23058;SDS011;30585;51.502;7.218;2023-08-12T10:40:39;3.05;;;1.80;;
23058;SDS011;30585;51.502;7.218;2023-08-12T10:43:08;2.55;;;1.90;;
23058;SDS011;30585;51.502;7.218;2023-08-12T10:45:42;3.25;;;1.80;;
23058;SDS011;30585;51.502;7.218;2023-08-12T10:48:18;2.40;;;1.60;;
23058;SDS011;30585;51.502;7.218;2023-08-12T10:50:55;2.65;;;1.90;;
23058;SDS011;30585;51.502;7.218;2023-08-12T10:53:26;2.75;;;1.77;;
23058;SDS011;30585;51.502;7.218;2023-08-12T10:56:00;3.05;;;1.80;;
23058;SDS011;30585;51.502;7.218;2023-08-12T10:58:29;2.70;;;1.80;;
23058;SDS011;30585;51.502;7.218;2023-08-12T11:01:02;2.05;;;1.73;;
23058;SDS011;30585;51.502;7.218;2023-08-12T11:03:31;4.43;;;1.85;;
23058;SDS011;30585;51.502;7.218;2023-08-12T11:06:04;3.58;;;2.17;;
23058;SDS011;30585;51.502;7.218;2023-08-12T11:08:32;2.95;;;1.65;;
23058;SDS011;30585;51.502;7.218;2023-08-12T11:11:02;2.55;;;1.88;;
23058;SDS011;30585;51.502;7.218;2023-08-12T11:13:30;2.78;;;1.88;;
23058;SDS011;30585;51.502;7.218;2023-08-12T11:16:07;2.47;;;1.67;;
23058;SDS011;30585;51.502;7.218;2023-08-12T11:18:37;2.10;;;1.65;;
23058;SDS011;30585;51.502;7.218;2023-08-12T11:21:05;2.13;;;1.90;;
23058;SDS011;30585;51.502;7.218;2023-08-12T11:23:33;1.90;;;1.70;;
23058;SDS011;30585;51.502;7.218;2023-08-12T11:26:02;1.65;;;1.40;;
23058;SDS011;30585;51.502;7.218;2023-08-12T11:28:30;4.18;;;1.52;;
23058;SDS011;30585;51.502;7.218;2023-08-12T11:30:58;2.47;;;1.20;;
23058;SDS011;30585;51.502;7.218;2023-08-12T11:33:26;1.58;;;1.38;;
23058;SDS011;30585;51.502;7.218;2023-08-12T11:35:54;2.10;;;1.30;;
23058;SDS011;30585;51.502;7.218;2023-08-12T11:38:22;1.95;;;1.38;;
23058;SDS011;30585;51.502;7.218;2023-08-12T11:40:50;1.73;;;1.25;;
23058;SDS011;30585;51.502;7.218;2023-08-12T11:43:22;1.50;;;1.20;;
23058;SDS011;30585;51.502;7.218;2023-08-12T11:45:50;1.20;;;1.10;;
23058;SDS011;30585;51.502;7.218;2023-08-12T11:48:18;1.20;;;0.80;;
23058;SDS011;30585;51.502;7.218;2023-08-12T11:50:46;1.92;;;0.80;;
23058;SDS011;30585;51.502;7.218;2023-08-12T11:53:14;1.15;;;0.98;;
23058;SDS011;30585;51.502;7.218;2023-08-12T11:55:42;1.70;;;0.77;;
23058;SDS011;30585;51.502;7.218;2023-08-12T11:58:11;1.83;;;0.80;;
23058;SDS011;30585;51.502;7.218;2023-08-12T12:00:47;1.00;;;0.90;;
23058;SDS011;30585;51.502;7.218;2023-08-12T12:03:16;1.67;;;1.00;;
23058;SDS011;30585;51.502;7.218;2023-08-12T12:05:45;1.10;;;0.98;;
23058;SDS011;30585;51.502;7.218;2023-08-12T12:08:14;1.45;;;1.05;;
23058;SDS011;30585;51.502;7.218;2023-08-12T12:10:42;1.50;;;0.95;;
23058;SDS011;30585;51.502;7.218;2023-08-12T12:13:10;1.33;;;0.95;;
23058;SDS011;30585;51.502;7.218;2023-08-12T12:15:40;1.95;;;0.70;;
23058;SDS011;30585;51.502;7.218;2023-08-12T12:18:11;1.10;;;1.00;;
23058;SDS011;30585;51.502;7.218;2023-08-12T12:20:53;1.20;;;1.10;;
23058;SDS011;30585;51.502;7.218;2023-08-12T12:23:22;1.30;;;1.00;;
23058;SDS011;30585;51.502;7.218;2023-08-12T12:25:56;2.17;;;1.00;;
23058;SDS011;30585;51.502;7.218;2023-08-12T12:28:25;1.45;;;0.90;;
23058;SDS011;30585;51.502;7.218;2023-08-12T12:30:55;0.80;;;0.80;;
23058;SDS011;30585;51.502;7.218;2023-08-12T12:33:25;1.00;;;0.90;;
23058;SDS011;30585;51.502;7.218;2023-08-12T12:35:53;1.40;;;1.20;;
23058;SDS011;30585;51.502;7.218;2023-08-12T12:38:25;1.10;;;1.00;;
23058;SDS011;30585;51.502;7.218;2023-08-12T12:40:53;1.30;;;1.20;;
23058;SDS011;30585;51.502;7.218;2023-08-12T12:43:21;2.33;;;1.30;;
23058;SDS011;30585;51.502;7.218;2023-08-12T12:45:49;2.42;;;1.35;;
23058;SDS011;30585;51.502;7.218;2023-08-12T12:48:17;3.17;;;1.35;;
23058;SDS011;30585;51.502;7.218;2023-08-12T12:50:48;4.68;;;1.90;;
23058;SDS011;30585;51.502;7.218;2023-08-12T12:53:17;5.07;;;2.65;;
23058;SDS011;30585;51.502;7.218;2023-08-12T12:55:45;5.20;;;2.35;;
23058;SDS011;30585;51.502;7.218;2023-08-12T12:58:13;2.80;;;1.85;;
23058;SDS011;30585;51.502;7.218;2023-08-12T13:00:42;3.33;;;3.00;;
23058;SDS011;30585;51.502;7.218;2023-08-12T13:03:10;3.88;;;2.80;;
23058;SDS011;30585;51.502;7.218;2023-08-12T13:05:38;3.08;;;2.88;;
23058;SDS011;30585;51.502;7.218;2023-08-12T13:08:07;3.97;;;3.60;;
23058;SDS011;30585;51.502;7.218;2023-08-12T13:10:35;3.97;;;3.58;;
23058;SDS011;30585;51.502;7.218;2023-08-12T13:13:03;4.10;;;3.45;;
23058;SDS011;30585;51.502;7.218;2023-08-12T13:15:31;3.28;;;2.97;;
23058;SDS011;30585;51.502;7.218;2023-08-12T13:18:00;4.70;;;3.28;;
23058;SDS011;30585;51.502;7.218;2023-08-12T13:20:29;3.92;;;3.63;;
23058;SDS011;30585;51.502;7.218;2023-08-12T13:22:57;3.83;;;3.53;;
23058;SDS011;30585;51.502;7.218;2023-08-12T13:25:27;4.13;;;3.78;;
23058;SDS011;30585;51.502;7.218;2023-08-12T13:27:55;4.35;;;3.95;;
23058;SDS011;30585;51.502;7.218;2023-08-12T13:30:23;6.10;;;4.28;;
23058;SDS011;30585;51.502;7.218;2023-08-12T13:32:51;4.90;;;4.40;;
23058;SDS011;30585;51.502;7.218;2023-08-12T13:35:19;5.20;;;4.70;;
23058;SDS011;30585;51.502;7.218;2023-08-12T13:38:02;5.93;;;5.15;;
23058;SDS011;30585;51.502;7.218;2023-08-12T13:40:31;6.80;;;5.82;;
23058;SDS011;30585;51.502;7.218;2023-08-12T13:42:59;5.78;;;5.20;;
23058;SDS011;30585;51.502;7.218;2023-08-12T13:45:27;5.05;;;4.65;;
23058;SDS011;30585;51.502;7.218;2023-08-12T13:47:55;5.20;;;4.80;;
23058;SDS011;30585;51.502;7.218;2023-08-12T13:50:23;6.32;;;5.43;;
23058;SDS011;30585;51.502;7.218;2023-08-12T13:52:51;5.90;;;5.35;;
23058;SDS011;30585;51.502;7.218;2023-08-12T13:55:19;7.25;;;6.65;;
23058;SDS011;30585;51.502;7.218;2023-08-12T13:57:48;7.20;;;6.45;;
23058;SDS011;30585;51.502;7.218;2023-08-12T14:00:16;8.25;;;7.25;;
23058;SDS011;30585;51.502;7.218;2023-08-12T14:02:44;9.95;;;7.65;;
23058;SDS011;30585;51.502;7.218;2023-08-12T14:05:14;9.85;;;8.95;;
23058;SDS011;30585;51.502;7.218;2023-08-12T14:07:42;10.40;;;9.18;;
23058;SDS011;30585;51.502;7.218;2023-08-12T14:10:10;10.85;;;9.80;;
23058;SDS011;30585;51.502;7.218;2023-08-12T14:12:38;10.00;;;9.10;;
23058;SDS011;30585;51.502;7.218;2023-08-12T14:15:08;9.32;;;8.30;;
23058;SDS011;30585;51.502;7.218;2023-08-12T14:17:36;7.85;;;5.93;;
23058;SDS011;30585;51.502;7.218;2023-08-12T14:20:05;7.93;;;5.95;;
23058;SDS011;30585;51.502;7.218;2023-08-12T14:22:34;6.10;;;5.50;;
23058;SDS011;30585;51.502;7.218;2023-08-12T14:25:02;6.60;;;6.00;;
23058;SDS011;30585;51.502;7.218;2023-08-12T14:27:31;6.40;;;5.82;;
23058;SDS011;30585;51.502;7.218;2023-08-12T14:29:59;6.45;;;5.85;;
23058;SDS011;30585;51.502;7.218;2023-08-12T14:32:28;6.45;;;5.95;;
23058;SDS011;30585;51.502;7.218;2023-08-12T14:34:56;6.85;;;6.15;;
23058;SDS011;30585;51.502;7.218;2023-08-12T14:37:24;6.32;;;5.10;;
23058;SDS011;30585;51.502;7.218;2023-08-12T14:39:54;6.07;;;5.50;;
23058;SDS011;30585;51.502;7.218;2023-08-12T14:42:22;5.90;;;5.30;;
23058;SDS011;30585;51.502;7.218;2023-08-12T14:44:49;5.80;;;4.78;;
23058;SDS011;30585;51.502;7.218;2023-08-12T14:47:18;5.38;;;4.88;;
23058;SDS011;30585;51.502;7.218;2023-08-12T14:49:47;5.88;;;5.30;;
23058;SDS011;30585;51.502;7.218;2023-08-12T14:52:16;5.00;;;4.30;;